Time;durP1;ratioP1;P1;durP2;ratioP2;P2;SDS_P1;SDS_P2;PMS_P1;PMS_P2;Temp;Humidity;BMP_temperature;BMP_pressure;BME280_temperature;BME280_humidity;BME280_pressure;Samples;Min_cycle;Max_cycle;Signal;HPM_P1;HPM_P2
2023/10/22 00:02:25;;;;;;;4.82;1.80;;;;;;;;;;6194972;23;20058;-84
2023/10/22 00:04:51;;;;;;;5.68;2.00;;;;;;;;;;6246716;23;20016;-84
2023/10/22 00:07:18;;;;;;;6.32;1.85;;;;;;;;;;6219292;23;20016;-84
2023/10/22 00:09:44;;;;;;;5.30;2.40;;;;;;;;;;6246478;23;20034;-84
2023/10/22 00:12:11;;;;;;;5.50;2.03;;;;;;;;;;6219433;23;20091;-84
2023/10/22 00:14:37;;;;;;;4.65;2.05;;;;;;;;;;6218978;23;20026;-85
2023/10/22 00:17:04;;;;;;;5.47;2.08;;;;;;;;;;6218958;23;20463;-84
2023/10/22 00:19:30;;;;;;;4.78;2.08;;;;;;;;;;6219392;23;20019;-84
2023/10/22 00:21:56;;;;;;;4.40;2.22;;;;;;;;;;6218708;23;20020;-84
2023/10/22 00:24:23;;;;;;;6.07;2.15;;;;;;;;;;6219216;23;20446;-84
2023/10/22 00:26:49;;;;;;;4.93;2.00;;;;;;;;;;6219114;23;20103;-85
2023/10/22 00:29:18;;;;;;;7.53;2.45;;;;;;;;;;6219697;23;20321;-84
2023/10/22 00:31:44;;;;;;;8.15;2.72;;;;;;;;;;6245771;23;20027;-84
2023/10/22 00:34:10;;;;;;;5.10;2.00;;;;;;;;;;6221646;23;20012;-84
2023/10/22 00:36:36;;;;;;;4.25;1.83;;;;;;;;;;6246195;23;20023;-84
2023/10/22 00:39:02;;;;;;;7.68;2.10;;;;;;;;;;6246257;23;20013;-84
2023/10/22 00:41:28;;;;;;;4.72;1.88;;;;;;;;;;6245928;23;20081;-84
2023/10/22 00:43:55;;;;;;;3.20;1.63;;;;;;;;;;6218807;23;20051;-84
2023/10/22 00:46:22;;;;;;;3.47;1.63;;;;;;;;;;6218453;23;20023;-84
2023/10/22 00:48:48;;;;;;;4.82;2.00;;;;;;;;;;6244783;23;20096;-84
2023/10/22 00:51:15;;;;;;;4.25;1.85;;;;;;;;;;6245965;23;20448;-84
2023/10/22 00:53:45;;;;;;;3.88;2.05;;;;;;;;;;6245771;23;20396;-84
2023/10/22 00:56:12;;;;;;;4.43;1.60;;;;;;;;;;6218687;23;20020;-84
2023/10/22 00:58:38;;;;;;;3.47;1.67;;;;;;;;;;6246303;23;20153;-84
2023/10/22 01:01:06;;;;;;;4.43;1.88;;;;;;;;;;6218628;23;20073;-84
2023/10/22 01:03:33;;;;;;;3.83;1.77;;;;;;;;;;6218388;23;20103;-84
2023/10/22 01:05:59;;;;;;;3.25;2.10;;;;;;;;;;6218439;23;20100;-84
2023/10/22 01:08:25;;;;;;;4.65;1.67;;;;;;;;;;6218396;23;20094;-84
2023/10/22 01:10:51;;;;;;;5.22;2.13;;;;;;;;;;6218745;23;20091;-84
2023/10/22 01:13:17;;;;;;;3.92;1.70;;;;;;;;;;6218853;23;20055;-84
2023/10/22 01:15:44;;;;;;;3.75;1.67;;;;;;;;;;6219026;23;20016;-84
2023/10/22 01:18:10;;;;;;;3.88;1.75;;;;;;;;;;6217285;23;20345;-84
2023/10/22 01:20:37;;;;;;;3.28;1.85;;;;;;;;;;6193441;23;20027;-84
2023/10/22 01:23:03;;;;;;;6.88;2.00;;;;;;;;;;6218977;23;20012;-84
2023/10/22 01:25:29;;;;;;;6.70;1.90;;;;;;;;;;6217411;23;20024;-84
2023/10/22 01:27:58;;;;;;;4.38;1.80;;;;;;;;;;6193585;23;20023;-84
2023/10/22 01:30:24;;;;;;;4.15;1.70;;;;;;;;;;6244274;23;20028;-85
2023/10/22 01:32:50;;;;;;;3.05;1.55;;;;;;;;;;6191512;23;20094;-85
2023/10/22 01:35:16;;;;;;;3.00;1.90;;;;;;;;;;6241441;23;20493;-84
2023/10/22 01:37:43;;;;;;;4.03;1.90;;;;;;;;;;6244001;23;20020;-84
2023/10/22 01:40:09;;;;;;;3.72;2.08;;;;;;;;;;6244526;23;20016;-85
2023/10/22 01:42:35;;;;;;;3.55;1.73;;;;;;;;;;6216891;23;20095;-85
2023/10/22 01:45:01;;;;;;;9.73;2.17;;;;;;;;;;6243799;23;20020;-85
2023/10/22 01:47:27;;;;;;;7.93;2.20;;;;;;;;;;6191338;23;20022;-85
2023/10/22 01:49:54;;;;;;;6.03;2.30;;;;;;;;;;6217448;23;20043;-85
2023/10/22 01:52:21;;;;;;;6.43;2.22;;;;;;;;;;6191030;23;20020;-85
2023/10/22 01:54:47;;;;;;;4.72;2.28;;;;;;;;;;6216925;23;20020;-85
2023/10/22 01:57:13;;;;;;;3.50;2.20;;;;;;;;;;6217753;23;20091;-85
2023/10/22 01:59:41;;;;;;;5.32;2.42;;;;;;;;;;6192038;23;20012;-86
2023/10/22 02:02:07;;;;;;;5.07;2.33;;;;;;;;;;6217310;23;20074;-85
2023/10/22 02:04:33;;;;;;;5.53;2.53;;;;;;;;;;6217372;23;20024;-85
2023/10/22 02:06:59;;;;;;;3.58;2.30;;;;;;;;;;6217195;23;20540;-85
2023/10/22 02:09:26;;;;;;;5.88;2.50;;;;;;;;;;6217193;23;20017;-85
2023/10/22 02:11:54;;;;;;;3.95;2.35;;;;;;;;;;6216840;23;20016;-85
2023/10/22 02:14:20;;;;;;;7.65;3.08;;;;;;;;;;6216754;23;20444;-85
2023/10/22 02:16:46;;;;;;;5.13;2.40;;;;;;;;;;6216628;23;20023;-85
2023/10/22 02:19:12;;;;;;;2.78;2.25;;;;;;;;;;6217452;23;20023;-85
2023/10/22 02:21:38;;;;;;;5.18;2.70;;;;;;;;;;6191773;23;20130;-86
2023/10/22 02:24:05;;;;;;;4.30;2.08;;;;;;;;;;6216804;23;20020;-85
2023/10/22 02:26:31;;;;;;;3.80;2.28;;;;;;;;;;6216615;23;20024;-85
2023/10/22 02:28:57;;;;;;;4.00;2.40;;;;;;;;;;6169809;23;1097386;-85
2023/10/22 02:31:23;;;;;;;3.88;2.40;;;;;;;;;;6217982;23;20345;-85
2023/10/22 02:33:49;;;;;;;4.03;2.15;;;;;;;;;;6218114;23;20448;-85
2023/10/22 02:36:15;;;;;;;5.65;2.10;;;;;;;;;;6218216;23;20016;-85
2023/10/22 02:38:41;;;;;;;4.80;2.30;;;;;;;;;;6217294;23;20290;-85
2023/10/22 02:41:07;;;;;;;2.22;1.90;;;;;;;;;;6217870;23;20031;-85
2023/10/22 02:43:33;;;;;;;2.97;2.00;;;;;;;;;;6218172;23;20074;-85
2023/10/22 02:45:59;;;;;;;3.65;2.10;;;;;;;;;;6218175;23;20035;-85
2023/10/22 02:48:25;;;;;;;3.00;2.13;;;;;;;;;;6218327;23;20046;-85
2023/10/22 02:50:51;;;;;;;4.15;2.40;;;;;;;;;;6192970;23;20012;-85
2023/10/22 02:53:17;;;;;;;3.35;2.33;;;;;;;;;;6192136;23;20027;-86
2023/10/22 02:55:43;;;;;;;3.53;2.22;;;;;;;;;;6217937;23;20020;-85
2023/10/22 02:58:09;;;;;;;4.45;2.30;;;;;;;;;;6218194;23;20020;-85
2023/10/22 03:00:36;;;;;;;3.60;2.30;;;;;;;;;;6218067;23;20035;-85
2023/10/22 03:03:02;;;;;;;6.10;2.85;;;;;;;;;;6217909;23;20449;-85
2023/10/22 03:05:31;;;;;;;9.02;2.85;;;;;;;;;;6217914;23;20448;-85
2023/10/22 03:07:57;;;;;;;3.38;2.50;;;;;;;;;;6216669;23;20090;-85
2023/10/22 03:10:24;;;;;;;5.15;2.45;;;;;;;;;;6217968;23;20017;-85
2023/10/22 03:12:50;;;;;;;5.45;2.70;;;;;;;;;;6219864;23;20020;-85
2023/10/22 03:15:16;;;;;;;4.35;2.70;;;;;;;;;;6220178;23;20097;-85
2023/10/22 03:17:42;;;;;;;4.82;2.25;;;;;;;;;;6219909;23;20091;-86
2023/10/22 03:20:09;;;;;;;5.47;3.22;;;;;;;;;;6220184;23;20314;-86
2023/10/22 03:22:35;;;;;;;5.35;2.42;;;;;;;;;;6219049;23;20019;-85
2023/10/22 03:25:01;;;;;;;4.68;2.40;;;;;;;;;;6220193;23;20020;-85
2023/10/22 03:27:27;;;;;;;3.90;2.40;;;;;;;;;;6220118;23;20016;-85
2023/10/22 03:29:53;;;;;;;4.25;2.72;;;;;;;;;;6219547;23;20012;-86
2023/10/22 03:32:19;;;;;;;3.58;2.60;;;;;;;;;;6219654;23;20039;-85
2023/10/22 03:34:45;;;;;;;3.05;2.30;;;;;;;;;;6219611;23;20384;-86
2023/10/22 03:37:12;;;;;;;4.55;2.40;;;;;;;;;;6219127;23;20366;-86
2023/10/22 03:39:38;;;;;;;4.88;2.92;;;;;;;;;;6219526;23;20027;-85
2023/10/22 03:42:04;;;;;;;5.03;2.53;;;;;;;;;;6219611;23;20051;-85
2023/10/22 03:44:30;;;;;;;3.40;2.35;;;;;;;;;;6219637;23;20376;-85
2023/10/22 03:46:56;;;;;;;4.07;2.60;;;;;;;;;;6219087;23;20012;-85
2023/10/22 03:49:22;;;;;;;3.45;2.63;;;;;;;;;;6219286;23;20039;-85
2023/10/22 03:51:48;;;;;;;3.15;2.58;;;;;;;;;;6194161;23;20401;-85
2023/10/22 03:54:14;;;;;;;5.30;2.53;;;;;;;;;;6219919;23;20090;-85
2023/10/22 03:56:40;;;;;;;4.68;2.90;;;;;;;;;;6219678;23;20385;-85
2023/10/22 03:59:06;;;;;;;5.53;2.80;;;;;;;;;;6246438;23;20020;-85
2023/10/22 04:01:32;;;;;;;3.50;2.50;;;;;;;;;;6246620;23;20023;-85
2023/10/22 04:03:58;;;;;;;5.40;3.00;;;;;;;;;;6219163;23;20016;-85
2023/10/22 04:06:24;;;;;;;4.20;2.72;;;;;;;;;;6245408;23;20016;-85
2023/10/22 04:08:50;;;;;;;4.70;2.83;;;;;;;;;;6246573;23;20020;-85
2023/10/22 04:11:20;;;;;;;4.18;3.00;;;;;;;;;;6219036;23;20013;-85
2023/10/22 04:13:46;;;;;;;4.00;2.85;;;;;;;;;;6194479;23;20621;-85
2023/10/22 04:16:18;;;;;;;3.60;2.63;;;;;;;;;;6219048;23;20498;-85
2023/10/22 04:18:45;;;;;;;5.03;2.80;;;;;;;;;;6219225;23;20444;-85
2023/10/22 04:21:17;;;;;;;2.92;2.55;;;;;;;;;;6218671;23;20448;-85
2023/10/22 04:23:43;;;;;;;5.35;2.78;;;;;;;;;;6194173;23;20046;-85
2023/10/22 04:26:13;;;;;;;3.85;2.90;;;;;;;;;;6219043;23;20031;-85
2023/10/22 04:28:46;;;;;;;5.00;3.10;;;;;;;;;;6218875;23;20016;-85
2023/10/22 04:31:12;;;;;;;4.10;3.00;;;;;;;;;;6219509;23;20020;-85
2023/10/22 04:33:38;;;;;;;5.45;3.20;;;;;;;;;;6218991;23;20023;-85
2023/10/22 04:36:04;;;;;;;3.95;3.20;;;;;;;;;;6218288;23;20016;-85
2023/10/22 04:38:31;;;;;;;7.35;3.33;;;;;;;;;;6218952;23;20515;-85
2023/10/22 04:40:57;;;;;;;5.00;3.40;;;;;;;;;;6218896;23;20100;-85
2023/10/22 04:43:23;;;;;;;4.15;3.65;;;;;;;;;;6218686;23;20028;-85
2023/10/22 04:45:50;;;;;;;5.57;4.05;;;;;;;;;;6219065;23;20020;-85
2023/10/22 04:48:17;;;;;;;6.72;4.53;;;;;;;;;;6218995;23;20048;-85
2023/10/22 04:50:44;;;;;;;5.93;4.45;;;;;;;;;;6218343;23;20107;-85
2023/10/22 04:53:11;;;;;;;6.93;4.72;;;;;;;;;;6218664;23;20047;-85
2023/10/22 04:55:37;;;;;;;7.65;5.60;;;;;;;;;;6219276;23;20405;-85
2023/10/22 04:58:03;;;;;;;8.18;5.53;;;;;;;;;;6218853;23;20020;-85
2023/10/22 05:00:29;;;;;;;9.55;5.70;;;;;;;;;;6218741;23;20016;-85
2023/10/22 05:02:55;;;;;;;8.55;5.95;;;;;;;;;;6218926;23;20012;-85
2023/10/22 05:05:21;;;;;;;8.50;5.95;;;;;;;;;;6218557;23;20020;-85
2023/10/22 05:07:50;;;;;;;9.35;6.45;;;;;;;;;;6218684;23;20070;-85
2023/10/22 05:10:16;;;;;;;10.63;6.93;;;;;;;;;;6218940;23;20479;-86
2023/10/22 05:12:42;;;;;;;11.23;6.90;;;;;;;;;;6218421;23;20035;-85
2023/10/22 05:15:09;;;;;;;11.65;7.30;;;;;;;;;;6217363;23;20058;-85
2023/10/22 05:17:35;;;;;;;11.13;8.07;;;;;;;;;;6217607;23;20461;-85
2023/10/22 05:20:01;;;;;;;11.85;7.68;;;;;;;;;;6219126;23;20016;-86
2023/10/22 05:22:27;;;;;;;11.38;8.30;;;;;;;;;;6218534;23;20453;-86
2023/10/22 05:24:53;;;;;;;12.98;8.75;;;;;;;;;;6218455;23;20030;-86
2023/10/22 05:27:19;;;;;;;13.50;9.57;;;;;;;;;;6219284;23;20019;-86
2023/10/22 05:29:48;;;;;;;12.57;9.23;;;;;;;;;;6218695;23;20023;-89
2023/10/22 05:32:14;;;;;;;12.50;9.38;;;;;;;;;;6218308;23;20023;-86
2023/10/22 05:34:42;;;;;;;15.05;10.02;;;;;;;;;;6218653;23;20019;-86
2023/10/22 05:37:08;;;;;;;14.55;9.82;;;;;;;;;;6218983;23;20022;-87
2023/10/22 05:39:36;;;;;;;14.80;9.50;;;;;;;;;;6193555;23;20070;-86
2023/10/22 05:42:03;;;;;;;11.82;9.10;;;;;;;;;;6218070;23;20452;-87
2023/10/22 05:44:29;;;;;;;10.73;7.60;;;;;;;;;;6193543;23;20111;-86
2023/10/22 05:46:55;;;;;;;10.25;6.30;;;;;;;;;;6218161;23;20106;-86
2023/10/22 05:49:21;;;;;;;7.43;4.90;;;;;;;;;;6193934;23;20023;-88
2023/10/22 05:51:50;;;;;;;7.28;3.92;;;;;;;;;;6218773;23;20356;-87
2023/10/22 05:54:16;;;;;;;4.32;2.50;;;;;;;;;;6219585;23;20026;-87
2023/10/22 05:56:42;;;;;;;5.50;2.33;;;;;;;;;;6218678;23;20453;-87
2023/10/22 05:59:09;;;;;;;5.35;1.98;;;;;;;;;;6193630;23;20016;-87
2023/10/22 06:01:38;;;;;;;4.65;1.95;;;;;;;;;;6191712;23;20356;-86
2023/10/22 06:04:16;;;;;;;6.35;2.50;;;;;;;;;;6218452;23;20095;-87
2023/10/22 06:06:44;;;;;;;5.85;2.75;;;;;;;;;;6193538;23;20020;-87
2023/10/22 06:09:12;;;;;;;7.28;2.20;;;;;;;;;;6214450;23;20016;-86
2023/10/22 06:11:44;;;;;;;7.97;2.65;;;;;;;;;;6193125;23;20024;-86
2023/10/22 06:14:10;;;;;;;8.50;2.90;;;;;;;;;;6218527;23;20016;-86
2023/10/22 06:16:41;;;;;;;8.45;2.97;;;;;;;;;;6192855;23;20020;-86
2023/10/22 06:19:10;;;;;;;8.73;2.70;;;;;;;;;;6194051;23;20401;-86
2023/10/22 06:21:36;;;;;;;8.05;2.70;;;;;;;;;;6192685;23;20027;-87
2023/10/22 06:24:02;;;;;;;9.48;2.55;;;;;;;;;;6218926;23;20020;-87
2023/10/22 06:26:29;;;;;;;6.70;2.70;;;;;;;;;;6193364;23;20019;-88
2023/10/22 06:28:55;;;;;;;6.97;2.85;;;;;;;;;;6215324;23;20073;-87
2023/10/22 06:31:23;;;;;;;6.65;2.72;;;;;;;;;;6193356;23;20027;-87
2023/10/22 06:33:49;;;;;;;6.60;2.47;;;;;;;;;;6193517;23;20051;-86
2023/10/22 06:36:18;;;;;;;8.10;2.33;;;;;;;;;;6217354;23;20016;-87
2023/10/22 06:38:45;;;;;;;5.63;2.30;;;;;;;;;;6192974;23;20013;-86
2023/10/22 06:41:13;;;;;;;9.00;2.72;;;;;;;;;;6193280;23;20023;-87
2023/10/22 06:43:39;;;;;;;6.65;2.90;;;;;;;;;;6218393;23;20126;-87
2023/10/22 06:46:05;;;;;;;7.80;2.80;;;;;;;;;;6194080;23;20035;-86
2023/10/22 06:48:31;;;;;;;4.82;2.53;;;;;;;;;;6194864;23;20516;-86
2023/10/22 06:50:57;;;;;;;8.20;3.10;;;;;;;;;;6219480;23;20042;-88
2023/10/22 06:53:23;;;;;;;6.75;2.65;;;;;;;;;;6195693;23;20343;-86
2023/10/22 06:55:50;;;;;;;5.18;2.58;;;;;;;;;;6195247;23;20074;-86
2023/10/22 06:58:17;;;;;;;6.00;2.67;;;;;;;;;;6195571;23;20012;-86
2023/10/22 07:00:43;;;;;;;4.28;2.42;;;;;;;;;;6194826;23;20039;-86
2023/10/22 07:03:09;;;;;;;10.30;2.80;;;;;;;;;;6195425;23;20099;-86
2023/10/22 07:05:35;;;;;;;6.68;2.63;;;;;;;;;;6194613;23;20044;-86
2023/10/22 07:08:02;;;;;;;9.05;2.83;;;;;;;;;;6194868;23;20016;-86
2023/10/22 07:10:28;;;;;;;6.10;2.90;;;;;;;;;;6195155;23;20019;-86
2023/10/22 07:12:54;;;;;;;7.82;3.08;;;;;;;;;;6194882;23;20020;-86
2023/10/22 07:15:20;;;;;;;9.30;3.50;;;;;;;;;;6220264;23;20019;-86
2023/10/22 07:17:47;;;;;;;9.52;2.97;;;;;;;;;;6195141;23;20337;-86
2023/10/22 07:20:13;;;;;;;10.85;3.05;;;;;;;;;;6194874;23;20098;-86
2023/10/22 07:22:39;;;;;;;7.75;3.28;;;;;;;;;;6194477;23;20023;-86
2023/10/22 07:25:06;;;;;;;10.98;4.22;;;;;;;;;;6219766;23;20024;-86
2023/10/22 07:27:32;;;;;;;9.68;4.07;;;;;;;;;;6195041;23;20012;-86
2023/10/22 07:29:58;;;;;;;8.55;3.60;;;;;;;;;;6195008;23;20020;-85
2023/10/22 07:32:24;;;;;;;6.90;3.50;;;;;;;;;;6194785;23;20388;-86
2023/10/22 07:34:50;;;;;;;8.57;3.72;;;;;;;;;;6220088;23;20051;-85
2023/10/22 07:37:17;;;;;;;9.77;3.80;;;;;;;;;;6195264;23;20016;-86
2023/10/22 07:39:43;;;;;;;5.75;3.50;;;;;;;;;;6220166;23;20448;-84
2023/10/22 07:42:09;;;;;;;8.60;3.20;;;;;;;;;;6220086;23;20020;-84
2023/10/22 07:44:35;;;;;;;8.77;3.50;;;;;;;;;;6220498;23;20016;-84
2023/10/22 07:47:01;;;;;;;6.90;3.15;;;;;;;;;;6195542;23;20020;-84
2023/10/22 07:49:27;;;;;;;8.52;4.05;;;;;;;;;;6220891;23;20058;-85
2023/10/22 07:51:53;;;;;;;9.15;5.25;;;;;;;;;;6246684;23;20027;-84
2023/10/22 07:54:19;;;;;;;5.68;3.42;;;;;;;;;;6220225;23;20018;-84
2023/10/22 07:56:46;;;;;;;8.40;3.47;;;;;;;;;;6195362;23;20042;-84
2023/10/22 07:59:12;;;;;;;7.50;3.88;;;;;;;;;;6219617;23;20051;-84
2023/10/22 08:01:38;;;;;;;8.13;3.40;;;;;;;;;;6220427;23;20024;-84
2023/10/22 08:04:06;;;;;;;9.18;3.90;;;;;;;;;;6196351;23;20468;-84
2023/10/22 08:06:34;;;;;;;5.07;3.20;;;;;;;;;;6195608;23;20041;-84
2023/10/22 08:09:03;;;;;;;6.85;3.25;;;;;;;;;;6222593;23;20016;-84
2023/10/22 08:11:30;;;;;;;5.68;3.30;;;;;;;;;;6196493;23;20016;-84
2023/10/22 08:13:56;;;;;;;8.85;4.40;;;;;;;;;;6248641;23;20016;-84
2023/10/22 08:16:22;;;;;;;7.93;3.60;;;;;;;;;;6246784;23;20444;-84
2023/10/22 08:18:48;;;;;;;6.18;2.88;;;;;;;;;;6219207;23;20028;-84
2023/10/22 08:21:14;;;;;;;5.47;3.13;;;;;;;;;;6246498;23;20174;-84
2023/10/22 08:23:41;;;;;;;7.45;3.20;;;;;;;;;;6246621;23;20023;-85
2023/10/22 08:26:07;;;;;;;5.10;2.65;;;;;;;;;;6219610;23;20027;-84
2023/10/22 08:28:35;;;;;;;7.70;2.50;;;;;;;;;;6194055;23;20047;-84
2023/10/22 08:31:01;;;;;;;6.93;2.42;;;;;;;;;;6219659;23;20016;-84
2023/10/22 08:33:27;;;;;;;4.40;2.08;;;;;;;;;;6219770;23;20020;-84
2023/10/22 08:35:53;;;;;;;4.53;2.25;;;;;;;;;;6244953;23;20463;-84
2023/10/22 08:38:19;;;;;;;3.08;2.00;;;;;;;;;;6194164;23;20016;-84
2023/10/22 08:40:45;;;;;;;5.82;2.15;;;;;;;;;;6246691;23;20047;-84
2023/10/22 08:43:16;;;;;;;5.38;2.20;;;;;;;;;;6216713;23;20027;-84
2023/10/22 08:45:45;;;;;;;5.85;2.35;;;;;;;;;;6194399;23;20082;-84
2023/10/22 08:48:12;;;;;;;7.72;2.17;;;;;;;;;;6244613;23;20043;-84
2023/10/22 08:50:38;;;;;;;6.00;2.28;;;;;;;;;;6246332;23;20318;-84
2023/10/22 08:53:04;;;;;;;4.93;2.22;;;;;;;;;;6194086;23;20031;-84
2023/10/22 08:55:31;;;;;;;7.18;2.30;;;;;;;;;;6218948;23;20023;-84
2023/10/22 08:57:57;;;;;;;7.72;2.55;;;;;;;;;;6219939;23;20397;-84
2023/10/22 09:00:25;;;;;;;5.43;2.30;;;;;;;;;;6221487;23;20113;-84
2023/10/22 09:02:52;;;;;;;8.10;2.17;;;;;;;;;;6221384;23;20063;-84
2023/10/22 09:05:19;;;;;;;8.45;3.08;;;;;;;;;;6196072;23;20052;-84
2023/10/22 09:07:55;;;;;;;9.57;2.42;;;;;;;;;;6195287;23;20024;-84
2023/10/22 09:10:29;;;;;;;4.18;2.22;;;;;;;;;;6193881;23;20337;-84
2023/10/22 09:13:09;;;;;;;4.75;2.03;;;;;;;;;;6220034;23;20028;-84
2023/10/22 09:15:39;;;;;;;7.57;2.30;;;;;;;;;;6195029;23;20095;-84
2023/10/22 09:18:05;;;;;;;6.22;2.40;;;;;;;;;;6194529;23;20020;-84
2023/10/22 09:20:34;;;;;;;3.53;2.05;;;;;;;;;;6194649;23;20020;-84
2023/10/22 09:23:20;;;;;;;5.50;2.00;;;;;;;;;;6194350;23;20479;-84
2023/10/22 09:25:47;;;;;;;5.25;1.70;;;;;;;;;;6193222;23;20499;-84
2023/10/22 09:28:16;;;;;;;4.88;2.10;;;;;;;;;;6219583;23;20020;-84
2023/10/22 09:30:43;;;;;;;5.13;2.38;;;;;;;;;;6193925;23;20016;-84
2023/10/22 09:33:09;;;;;;;4.35;1.85;;;;;;;;;;6194494;23;20012;-83
2023/10/22 09:35:36;;;;;;;5.13;1.83;;;;;;;;;;6218923;23;20016;-84
2023/10/22 09:38:02;;;;;;;4.28;2.00;;;;;;;;;;6219471;23;20016;-84
2023/10/22 09:40:35;;;;;;;4.20;1.90;;;;;;;;;;6195044;23;20027;-83
2023/10/22 09:43:05;;;;;;;5.18;2.00;;;;;;;;;;6247556;23;20082;-84
2023/10/22 09:45:34;;;;;;;3.88;2.30;;;;;;;;;;6246998;23;20055;-86
2023/10/22 09:48:04;;;;;;;7.95;2.22;;;;;;;;;;6193100;23;20094;-84
2023/10/22 09:50:31;;;;;;;3.88;1.80;;;;;;;;;;6192690;23;20071;-84
2023/10/22 09:52:59;;;;;;;3.92;1.80;;;;;;;;;;6218676;23;20019;-84
2023/10/22 09:55:26;;;;;;;5.28;1.92;;;;;;;;;;6219436;23;20020;-84
2023/10/22 09:57:53;;;;;;;6.18;1.67;;;;;;;;;;6246153;23;20321;-84
2023/10/22 10:00:20;;;;;;;4.80;1.60;;;;;;;;;;6194232;23;20400;-84
2023/10/22 10:02:47;;;;;;;4.50;1.90;;;;;;;;;;6194140;23;20052;-84
2023/10/22 10:05:14;;;;;;;6.65;2.03;;;;;;;;;;6246411;23;20019;-84
2023/10/22 10:07:41;;;;;;;4.00;1.70;;;;;;;;;;6245579;23;20027;-84
2023/10/22 10:10:08;;;;;;;5.88;1.75;;;;;;;;;;6219441;23;20066;-84
2023/10/22 10:12:39;;;;;;;4.05;1.70;;;;;;;;;;6217644;23;20016;-84
2023/10/22 10:15:06;;;;;;;5.00;1.60;;;;;;;;;;6217786;23;20095;-84
2023/10/22 10:17:48;;;;;;;3.25;1.90;;;;;;;;;;6193763;23;20444;-84
2023/10/22 10:20:24;;;;;;;5.28;1.80;;;;;;;;;;6193070;23;20024;-84
2023/10/22 10:23:04;;;;;;;4.57;1.65;;;;;;;;;;6161099;23;20031;-84
2023/10/22 10:25:33;;;;;;;4.72;1.77;;;;;;;;;;6218338;23;20020;-84
2023/10/22 10:28:13;;;;;;;4.80;1.52;;;;;;;;;;6220787;23;20023;-84
2023/10/22 10:30:41;;;;;;;3.70;1.20;;;;;;;;;;6192439;23;20022;-84
2023/10/22 10:33:19;;;;;;;2.70;1.38;;;;;;;;;;6242542;23;20016;-84
2023/10/22 10:35:51;;;;;;;2.53;1.30;;;;;;;;;;6193244;23;20453;-84
2023/10/22 10:38:21;;;;;;;3.35;1.60;;;;;;;;;;6218449;23;20012;-84
2023/10/22 10:40:51;;;;;;;2.78;1.20;;;;;;;;;;6193743;23;20477;-84
2023/10/22 10:43:20;;;;;;;3.47;1.40;;;;;;;;;;6218284;23;20024;-84
2023/10/22 10:46:05;;;;;;;3.33;1.45;;;;;;;;;;6191008;23;20012;-84
2023/10/22 10:48:52;;;;;;;3.30;1.30;;;;;;;;;;6218907;23;20012;-84
2023/10/22 10:51:20;;;;;;;2.05;1.20;;;;;;;;;;6217842;23;20115;-84
2023/10/22 10:54:20;;;;;;;1.83;1.20;;;;;;;;;;6193110;23;20357;-84
2023/10/22 10:56:50;;;;;;;3.70;1.75;;;;;;;;;;6139292;23;20035;-84
2023/10/22 10:59:48;;;;;;;3.25;1.50;;;;;;;;;;6217693;23;20326;-84
2023/10/22 11:02:14;;;;;;;2.33;1.23;;;;;;;;;;6137521;23;20027;-84
2023/10/22 11:04:46;;;;;;;3.72;1.95;;;;;;;;;;6217527;23;20471;-84
2023/10/22 11:07:25;;;;;;;4.82;1.50;;;;;;;;;;6217716;23;20383;-84
2023/10/22 11:09:51;;;;;;;3.30;1.63;;;;;;;;;;6219619;23;20154;-84
2023/10/22 11:12:20;;;;;;;2.63;1.33;;;;;;;;;;6217651;23;20113;-84
2023/10/22 11:14:53;;;;;;;5.07;1.52;;;;;;;;;;6244912;23;20321;-84
2023/10/22 11:17:20;;;;;;;2.78;1.40;;;;;;;;;;6217311;23;20016;-84
2023/10/22 11:19:50;;;;;;;3.28;1.85;;;;;;;;;;6237662;23;20023;-84
2023/10/22 11:22:16;;;;;;;1.90;1.30;;;;;;;;;;6217894;23;20479;-84
2023/10/22 11:24:42;;;;;;;5.13;1.60;;;;;;;;;;6217776;23;20060;-85
2023/10/22 11:27:08;;;;;;;3.88;1.60;;;;;;;;;;6218273;23;20042;-85
2023/10/22 11:29:50;;;;;;;3.70;1.70;;;;;;;;;;6244840;23;20016;-87
2023/10/22 11:32:17;;;;;;;4.25;1.70;;;;;;;;;;6218269;23;20058;-85
2023/10/22 11:34:47;;;;;;;3.70;1.40;;;;;;;;;;6219978;23;20015;-85
2023/10/22 11:37:13;;;;;;;4.32;1.50;;;;;;;;;;6194933;23;20115;-85
2023/10/22 11:39:41;;;;;;;2.78;1.60;;;;;;;;;;6219474;23;20023;-85
2023/10/22 11:42:07;;;;;;;7.00;1.80;;;;;;;;;;6193183;23;20020;-85
2023/10/22 11:44:34;;;;;;;4.50;1.70;;;;;;;;;;6217412;23;20023;-85
2023/10/22 11:47:20;;;;;;;2.38;1.50;;;;;;;;;;6217147;23;20016;-85
2023/10/22 11:49:47;;;;;;;6.28;1.85;;;;;;;;;;6243216;23;20110;-85
2023/10/22 11:52:31;;;;;;;5.35;2.15;;;;;;;;;;6245176;23;20024;-85
2023/10/22 11:54:57;;;;;;;3.08;1.75;;;;;;;;;;6218947;23;20049;-85
2023/10/22 11:57:23;;;;;;;4.38;1.60;;;;;;;;;;6194195;23;20016;-85
2023/10/22 11:59:49;;;;;;;4.10;1.45;;;;;;;;;;6219130;23;20023;-85
2023/10/22 12:02:15;;;;;;;4.05;1.70;;;;;;;;;;6219058;23;20016;-85
2023/10/22 12:04:41;;;;;;;2.80;1.42;;;;;;;;;;6219563;23;20020;-85
2023/10/22 12:07:07;;;;;;;3.58;1.60;;;;;;;;;;6217997;23;20061;-85
2023/10/22 12:09:33;;;;;;;2.50;1.30;;;;;;;;;;6219167;23;20092;-85
2023/10/22 12:11:59;;;;;;;5.38;1.65;;;;;;;;;;6218520;23;20099;-85
2023/10/22 12:14:25;;;;;;;6.05;1.60;;;;;;;;;;6219105;23;20128;-85
2023/10/22 12:16:52;;;;;;;3.10;1.50;;;;;;;;;;6193336;23;20020;-85
2023/10/22 12:19:18;;;;;;;3.55;1.50;;;;;;;;;;6218224;23;20034;-85
2023/10/22 12:21:47;;;;;;;3.22;1.40;;;;;;;;;;6218825;23;20020;-86
2023/10/22 12:24:16;;;;;;;4.00;1.50;;;;;;;;;;6219181;23;20091;-84
2023/10/22 12:26:42;;;;;;;2.15;1.65;;;;;;;;;;6218128;23;20012;-85
2023/10/22 12:29:08;;;;;;;2.78;1.40;;;;;;;;;;6219545;23;20425;-83
2023/10/22 12:31:34;;;;;;;3.75;1.50;;;;;;;;;;6194985;23;20015;-83
2023/10/22 12:34:00;;;;;;;3.00;1.35;;;;;;;;;;6220164;23;20012;-85
2023/10/22 12:36:31;;;;;;;2.70;1.38;;;;;;;;;;6194647;23;20091;-85
2023/10/22 12:38:58;;;;;;;3.25;1.50;;;;;;;;;;6218265;23;20079;-84
2023/10/22 12:41:27;;;;;;;2.33;1.30;;;;;;;;;;6170960;23;20066;-84
2023/10/22 12:43:53;;;;;;;2.95;1.50;;;;;;;;;;6195040;23;20012;-84
2023/10/22 12:46:20;;;;;;;3.55;2.25;;;;;;;;;;6195046;23;20094;-84
2023/10/22 12:48:46;;;;;;;4.25;1.65;;;;;;;;;;6218770;23;20114;-84
2023/10/22 12:51:12;;;;;;;3.75;1.23;;;;;;;;;;6218080;23;20318;-84
2023/10/22 12:53:40;;;;;;;2.20;1.25;;;;;;;;;;6220147;23;20432;-84
2023/10/22 12:56:09;;;;;;;1.95;1.30;;;;;;;;;;6244082;23;20101;-83
2023/10/22 12:58:38;;;;;;;2.92;1.40;;;;;;;;;;6247311;23;20074;-83
2023/10/22 13:01:05;;;;;;;3.78;2.00;;;;;;;;;;6247320;23;20020;-84
2023/10/22 13:03:32;;;;;;;1.50;1.13;;;;;;;;;;6194622;23;20023;-83
2023/10/22 13:06:01;;;;;;;2.22;1.27;;;;;;;;;;6194628;23;20028;-83
2023/10/22 13:08:27;;;;;;;4.65;1.40;;;;;;;;;;6195091;23;20028;-83
2023/10/22 13:10:53;;;;;;;3.20;1.30;;;;;;;;;;6220189;23;20467;-84
2023/10/22 13:13:19;;;;;;;4.28;1.20;;;;;;;;;;6194432;23;20016;-84
2023/10/22 13:15:49;;;;;;;1.88;1.30;;;;;;;;;;6219691;23;20042;-85
2023/10/22 13:18:16;;;;;;;2.90;1.33;;;;;;;;;;6194787;23;20024;-84
2023/10/22 13:20:42;;;;;;;2.13;1.30;;;;;;;;;;6246524;23;20031;-85
2023/10/22 13:23:17;;;;;;;1.88;1.17;;;;;;;;;;6221406;23;20016;-84
2023/10/22 13:25:43;;;;;;;2.20;1.35;;;;;;;;;;6219755;23;20012;-85
2023/10/22 13:28:13;;;;;;;2.60;1.10;;;;;;;;;;6194963;23;20070;-84
2023/10/22 13:30:41;;;;;;;6.50;1.30;;;;;;;;;;6219454;23;20047;-84
2023/10/22 13:33:09;;;;;;;3.67;1.75;;;;;;;;;;6194008;23;20068;-84
2023/10/22 13:35:36;;;;;;;1.67;1.00;;;;;;;;;;6193863;23;20016;-84
2023/10/22 13:38:03;;;;;;;1.88;1.20;;;;;;;;;;6194406;23;20023;-84
2023/10/22 13:40:29;;;;;;;1.95;1.17;;;;;;;;;;6194486;23;20024;-84
2023/10/22 13:42:55;;;;;;;2.95;1.30;;;;;;;;;;6246817;23;20012;-84
2023/10/22 13:45:21;;;;;;;3.40;1.30;;;;;;;;;;6194009;23;20024;-84
2023/10/22 13:47:47;;;;;;;3.03;1.60;;;;;;;;;;6219181;23;20016;-84
2023/10/22 13:50:17;;;;;;;1.70;1.23;;;;;;;;;;6246103;23;20024;-84
2023/10/22 13:52:43;;;;;;;2.00;1.35;;;;;;;;;;6218594;23;20024;-85
2023/10/22 13:55:09;;;;;;;2.50;1.33;;;;;;;;;;6218822;23;20130;-84
2023/10/22 13:57:35;;;;;;;2.58;1.13;;;;;;;;;;6219211;23;20023;-84
2023/10/22 14:00:02;;;;;;;2.85;1.13;;;;;;;;;;6246398;23;20020;-85
2023/10/22 14:02:31;;;;;;;1.77;1.25;;;;;;;;;;6193050;23;20031;-85
2023/10/22 14:05:02;;;;;;;3.58;1.73;;;;;;;;;;6194770;23;20055;-84
2023/10/22 14:07:28;;;;;;;4.28;1.98;;;;;;;;;;6218679;23;20020;-85
2023/10/22 14:10:03;;;;;;;4.10;2.42;;;;;;;;;;6220866;23;20016;-84
2023/10/22 14:12:29;;;;;;;3.53;1.88;;;;;;;;;;6248054;23;20016;-84
2023/10/22 14:14:57;;;;;;;2.88;1.67;;;;;;;;;;6195168;23;20031;-84
2023/10/22 14:17:23;;;;;;;6.28;2.60;;;;;;;;;;6218351;23;20024;-87
2023/10/22 14:19:53;;;;;;;4.30;1.90;;;;;;;;;;6194535;23;20859;-85
2023/10/22 14:22:19;;;;;;;2.70;1.60;;;;;;;;;;6245772;23;20016;-85
2023/10/22 14:24:46;;;;;;;6.35;2.05;;;;;;;;;;6219132;23;20099;-85
2023/10/22 14:27:13;;;;;;;5.50;1.50;;;;;;;;;;6220595;23;20028;-84
2023/10/22 14:29:39;;;;;;;3.47;1.70;;;;;;;;;;6247998;23;20016;-85
2023/10/22 14:32:05;;;;;;;3.33;2.10;;;;;;;;;;6246247;23;20016;-85
2023/10/22 14:34:31;;;;;;;7.68;4.05;;;;;;;;;;6195333;23;20022;-85
2023/10/22 14:36:57;;;;;;;5.65;2.67;;;;;;;;;;6195205;23;20024;-84
2023/10/22 14:39:24;;;;;;;2.08;1.67;;;;;;;;;;6249390;23;20023;-83
2023/10/22 14:41:51;;;;;;;2.42;1.60;;;;;;;;;;6248548;23;20031;-84
2023/10/22 14:44:18;;;;;;;2.58;1.80;;;;;;;;;;6222202;23;20090;-83
2023/10/22 14:46:44;;;;;;;2.60;1.27;;;;;;;;;;6221686;23;20020;-83